Vremea acum in Brasov - Romania

Vrei sa afli care e starea vremii acum in Brasov - Romania? Dorim sa iti furnizam starea vremii pentru Brasov - Romania. Starea vremii Brasov - Romania pentru astazi.

Vremea acum in Brasov

Temperatura: 14.1 °C

Se simte ca: 13.6 °C
Innorat: 56 %
Precipitatii: 62 %
Presiune atmosferica: 1019 hPa
Umiditate: 41%
Vizibilitate: 10 km
Vantul bate din WNW cu 9.4 km/h

Evolutia vremii in Brasov pe ore

Ora: 17:00
Ploi pe porţiuni în apropiere
Temperatura: 12.7°C
Sansa de precipitatii: 62%
Ora Descriere Temp Se simte Precipitatii Umiditate Vant
00:00Parțial noros5.7°5.7°0%61%WSW 2.9 KM/H
01:00Parțial noros5.2°5.2°0%63%WSW 2.5 KM/H
02:00Parțial noros4.6°4.6°0%64%SW 2.5 KM/H
03:00Parțial noros4.3°4.2°0%66%SSW 2.9 KM/H
04:00Parțial noros4.1°3.8°0%67%S 3.2 KM/H
05:00Parțial noros3.8°3.4°0%69%SSE 3.6 KM/H
06:00Parțial noros5.6°5.4°0%63%SE 2.9 KM/H
07:00Parțial noros7.5°7.3°0%57%E 2.2 KM/H
08:00Parțial noros9.3°9.3°0%50%NE 1.4 KM/H
09:00Parțial noros11.5°11.5°0%46%SE 2.2 KM/H
10:00Parțial noros13.7°13.7°0%42%WSW 2.5 KM/H
11:00Parțial noros15.9°15.9°0%37%NNW 3.2 KM/H
12:00Parțial noros15.5°15.4°0%38%NW 5 KM/H
13:00Parțial noros15.2°15°0%38%NW 7.2 KM/H
14:00Parțial noros14.8°14.5°0%38%WNW 9 KM/H
15:00Ploi pe porţiuni în apropiere14.1°13.6°21%41%WNW 9.4 KM/H
16:00Parțial noros13.4°12.7°41%44%W 9.7 KM/H
17:00Ploi pe porţiuni în apropiere12.7°11.8°62%47%W 10.1 KM/H
18:00Parțial noros11.4°10.8°41%55%W 9 KM/H
19:00Ploi pe porţiuni în apropiere10°9.7°21%62%W 7.6 KM/H
20:00Parțial noros8.7°8.7°0%70%W 6.5 KM/H
21:00Parțial noros7.8°7.5°0%68%W 5.8 KM/H
22:00Parțial noros6.8°6.4°0%65%W 5.4 KM/H
23:00Parțial noros5.9°5.2°0%63%W 4.7 KM/H